Disclaimer

Please do not use the information listed here in-flight or in-navigation, as they are not provided to us by the airports but are provided by volunteers, so they might be outdated.

Search


Regions


Airport information page

Radio informations:
Tower (TWR) - 120.1 MHz
Ground (GND) - 121.9 MHz
Approach (APP) - 120.1 MHz

Airport informations:
Latitude: 40° 59' 42.39" N
Longitude: 039° 47' 23.02" E
Elevation: 104 feet - 32 meters
Operating hours: 24 hour operations
Operating agency: Civil government, landing fees and diplomatic clearance may be required
Timezone: UTC+2(+3DT) - Dates notified by NOTAM
Fuel: N/A

Runway information:
11/29 - 8661 x 148 feet< - >2640 x 45 meters

Recent METARs:
LTCG 151150Z 09003KT 030V130 9999 SCT035 BKN090 13/05 Q1018 NOSIG RMK RWY29 VRB02KT
LTCG 151220Z 12004KT 080V150 9999 SCT035 BKN090 13/05 Q1018 NOSIG RMK RWY29 VRB02KT
LTCG 151250Z 12004KT 9999 SCT035 BKN100 13/05 Q1018 NOSIG RMK RWY29 08003KT 360V120

Airport on the map: